createdAt,value
2017-08-28T00:02:06.283Z,18.87
2017-08-28T00:04:32.064Z,18.79
2017-08-28T00:06:57.870Z,18.70
2017-08-28T00:09:23.612Z,18.70
2017-08-28T00:11:49.394Z,18.71
2017-08-28T00:14:15.147Z,18.76
2017-08-28T00:16:40.896Z,18.84
2017-08-28T00:19:06.682Z,18.78
2017-08-28T00:21:32.480Z,18.72
2017-08-28T00:23:58.255Z,18.67
2017-08-28T00:26:23.995Z,18.54
2017-08-28T00:28:49.743Z,18.57
2017-08-28T00:31:15.523Z,18.58
2017-08-28T00:33:41.271Z,18.63
2017-08-28T00:36:07.023Z,18.55
2017-08-28T00:38:32.804Z,18.46
2017-08-28T00:40:58.575Z,18.54
2017-08-28T00:43:24.331Z,18.56
2017-08-28T00:45:50.107Z,18.57
2017-08-28T00:48:15.878Z,18.59
2017-08-28T00:50:41.659Z,18.55
2017-08-28T00:53:07.508Z,18.59
2017-08-28T00:55:33.261Z,18.62
2017-08-28T00:57:59.061Z,18.74
2017-08-28T01:00:24.861Z,18.61
2017-08-28T01:02:50.606Z,18.57
2017-08-28T01:05:16.375Z,18.50
2017-08-28T01:07:42.159Z,18.44
2017-08-28T01:10:07.956Z,18.28
2017-08-28T01:12:33.690Z,18.34
2017-08-28T01:14:59.447Z,18.25
2017-08-28T01:17:25.226Z,17.83
2017-08-28T01:19:50.974Z,17.93
2017-08-28T01:22:16.750Z,18.04
2017-08-28T01:24:42.499Z,18.10
2017-08-28T01:27:08.260Z,18.12
2017-08-28T01:29:34.032Z,18.05
2017-08-28T01:32:00.278Z,18.10
2017-08-28T01:34:26.075Z,17.95
2017-08-28T01:36:51.833Z,18.00
2017-08-28T01:39:17.592Z,18.00
2017-08-28T01:41:43.400Z,17.98
2017-08-28T01:44:09.147Z,17.98
2017-08-28T01:46:34.892Z,18.02
2017-08-28T01:49:00.673Z,18.01
2017-08-28T01:51:26.459Z,17.94
2017-08-28T01:53:52.190Z,18.06
2017-08-28T01:56:17.948Z,18.13
2017-08-28T01:58:43.863Z,18.00
2017-08-28T02:01:09.620Z,17.91
2017-08-28T02:03:35.396Z,17.91
2017-08-28T02:06:01.168Z,17.87
2017-08-28T02:08:27.016Z,17.89
2017-08-28T02:10:52.796Z,17.86
2017-08-28T02:13:18.551Z,17.76
2017-08-28T02:15:44.397Z,17.75
2017-08-28T02:18:10.179Z,17.88
2017-08-28T02:20:35.923Z,17.82
2017-08-28T02:23:01.686Z,17.74
2017-08-28T02:25:27.454Z,17.58
2017-08-28T02:27:53.219Z,17.70
2017-08-28T02:30:19.004Z,17.75
2017-08-28T02:32:44.754Z,17.58
2017-08-28T02:35:10.555Z,17.49
2017-08-28T02:37:36.299Z,17.10
2017-08-28T02:40:02.872Z,17.29
2017-08-28T02:42:28.644Z,17.29
2017-08-28T02:44:54.386Z,17.40
2017-08-28T02:47:20.265Z,17.47
2017-08-28T02:49:46.016Z,17.52
2017-08-28T02:52:11.765Z,17.52
2017-08-28T02:54:37.543Z,17.31
2017-08-28T02:57:03.296Z,17.47
2017-08-28T02:59:29.088Z,17.43
2017-08-28T03:01:54.867Z,17.41
2017-08-28T03:04:20.635Z,17.45
2017-08-28T03:06:46.413Z,17.53
2017-08-28T03:09:12.186Z,17.45
2017-08-28T03:11:37.935Z,17.52
2017-08-28T03:14:03.685Z,17.58
2017-08-28T03:16:29.454Z,17.53
2017-08-28T03:18:55.193Z,17.50
2017-08-28T03:21:20.944Z,17.54
2017-08-28T03:23:46.728Z,17.56
2017-08-28T03:26:12.464Z,17.41
2017-08-28T03:28:38.199Z,17.60
2017-08-28T03:31:03.950Z,17.73
2017-08-28T03:33:29.714Z,17.78
2017-08-28T03:35:55.499Z,17.79
2017-08-28T03:38:21.375Z,17.71
2017-08-28T03:40:47.353Z,17.68
2017-08-28T03:43:13.187Z,17.69
2017-08-28T03:45:38.980Z,17.46
2017-08-28T03:48:04.739Z,17.60
2017-08-28T03:50:30.535Z,17.67
2017-08-28T03:52:56.448Z,17.23
2017-08-28T03:55:22.211Z,17.14
2017-08-28T03:57:47.987Z,17.02
2017-08-28T04:00:13.795Z,17.09
2017-08-28T04:02:39.599Z,17.27
2017-08-28T04:05:05.360Z,17.23
2017-08-28T04:07:31.125Z,17.43
2017-08-28T04:09:56.936Z,17.17
2017-08-28T04:12:22.763Z,17.36
2017-08-28T04:14:48.524Z,17.51
2017-08-28T04:17:14.325Z,17.50
2017-08-28T04:19:40.094Z,17.48
2017-08-28T04:22:05.902Z,17.18
2017-08-28T04:24:31.668Z,17.17
2017-08-28T04:26:57.480Z,17.44
2017-08-28T04:29:23.259Z,17.49
2017-08-28T04:31:49.031Z,17.57
2017-08-28T04:34:14.792Z,17.21
2017-08-28T04:36:40.639Z,17.67
2017-08-28T04:39:06.430Z,17.59
2017-08-28T04:41:32.192Z,17.64
2017-08-28T04:43:57.944Z,17.64
2017-08-28T04:46:23.723Z,17.45
2017-08-28T04:48:49.467Z,17.71
2017-08-28T04:51:15.246Z,17.88
2017-08-28T04:53:41.066Z,18.07
2017-08-28T04:56:06.818Z,18.09
2017-08-28T04:58:32.647Z,18.12
2017-08-28T05:00:58.391Z,18.11
2017-08-28T05:03:24.138Z,18.10
2017-08-28T05:05:49.900Z,18.06
2017-08-28T05:08:15.710Z,17.81
2017-08-28T05:10:41.578Z,17.77
2017-08-28T05:13:07.372Z,18.00
2017-08-28T05:15:33.127Z,18.00
2017-08-28T05:17:58.911Z,17.76
2017-08-28T05:20:24.744Z,17.88
2017-08-28T05:22:50.539Z,17.74
2017-08-28T05:25:16.324Z,17.63
2017-08-28T05:27:42.070Z,17.50
2017-08-28T05:30:07.878Z,17.59
2017-08-28T05:32:33.632Z,17.59
2017-08-28T05:34:59.394Z,17.50
2017-08-28T05:37:25.182Z,17.44
2017-08-28T05:39:50.967Z,17.41
2017-08-28T05:42:16.710Z,17.58
2017-08-28T05:44:42.493Z,17.56
2017-08-28T05:47:08.277Z,17.63
2017-08-28T05:49:34.010Z,17.74
2017-08-28T05:51:59.750Z,17.64
2017-08-28T05:54:25.533Z,17.68
2017-08-28T05:56:51.292Z,17.83
2017-08-28T05:59:17.161Z,17.94
2017-08-28T06:01:42.927Z,17.86
2017-08-28T06:04:08.702Z,17.84
2017-08-28T06:06:34.456Z,17.79
2017-08-28T06:09:00.233Z,17.77
2017-08-28T06:11:25.979Z,17.83
2017-08-28T06:13:51.738Z,17.97
2017-08-28T06:16:17.515Z,17.97
2017-08-28T06:18:43.755Z,18.17
2017-08-28T06:21:09.526Z,18.21
2017-08-28T06:23:35.304Z,18.23
2017-08-28T06:26:01.076Z,18.47
2017-08-28T06:28:26.851Z,18.72
2017-08-28T06:30:52.642Z,18.77
2017-08-28T06:33:18.399Z,18.40
2017-08-28T06:35:44.152Z,18.94
2017-08-28T06:38:09.931Z,18.72
2017-08-28T06:40:35.715Z,18.93
2017-08-28T06:43:01.508Z,19.08
2017-08-28T06:45:27.261Z,19.19
2017-08-28T06:47:53.014Z,18.99
2017-08-28T06:50:18.794Z,19.33
2017-08-28T06:52:44.579Z,19.61
2017-08-28T06:55:10.315Z,19.70
2017-08-28T06:57:36.127Z,19.54
2017-08-28T07:00:01.892Z,20.00
2017-08-28T07:02:27.676Z,20.11
2017-08-28T07:04:53.484Z,20.61
2017-08-28T07:07:19.240Z,21.00
2017-08-28T07:09:45.023Z,21.40
2017-08-28T07:12:10.803Z,21.21
2017-08-28T07:14:36.562Z,22.21
2017-08-28T07:17:02.305Z,22.67
2017-08-28T07:19:28.098Z,22.79
2017-08-28T07:21:53.840Z,22.94
2017-08-28T07:24:19.607Z,22.79
2017-08-28T07:26:45.444Z,22.92
2017-08-28T07:29:11.205Z,23.49
2017-08-28T07:31:36.987Z,23.64
2017-08-28T07:34:02.803Z,24.10
2017-08-28T07:36:28.563Z,24.48
2017-08-28T07:38:54.307Z,24.32
2017-08-28T07:41:20.086Z,24.76
2017-08-28T07:43:45.843Z,24.80
2017-08-28T07:46:11.599Z,25.62
2017-08-28T07:48:37.450Z,25.68
2017-08-28T07:51:03.288Z,25.23
2017-08-28T07:53:29.025Z,25.40
2017-08-28T07:55:54.807Z,26.02
2017-08-28T07:58:20.569Z,25.60
2017-08-28T08:00:46.325Z,25.99
2017-08-28T08:03:12.105Z,26.21
2017-08-28T08:05:37.854Z,25.52
2017-08-28T08:08:03.634Z,26.85
2017-08-28T08:10:29.397Z,26.39
2017-08-28T08:12:55.151Z,26.25
2017-08-28T08:15:20.939Z,26.49
2017-08-28T08:17:46.687Z,26.06
2017-08-28T08:20:12.473Z,26.64
2017-08-28T08:22:38.236Z,25.58
2017-08-28T08:25:04.027Z,25.37
2017-08-28T08:27:29.799Z,26.35
2017-08-28T08:29:55.563Z,25.74
2017-08-28T08:32:21.371Z,26.40
2017-08-28T08:34:47.143Z,26.99
2017-08-28T08:37:12.908Z,26.94
2017-08-28T08:39:38.674Z,26.49
2017-08-28T08:42:04.475Z,26.64
2017-08-28T08:44:30.265Z,27.32
2017-08-28T08:46:56.023Z,27.73
2017-08-28T08:49:21.787Z,27.75
2017-08-28T08:51:47.539Z,28.06
2017-08-28T08:54:13.331Z,27.77
2017-08-28T08:56:39.094Z,28.53
2017-08-28T08:59:04.915Z,28.29
2017-08-28T09:01:30.691Z,28.76
2017-08-28T09:03:56.439Z,28.74
2017-08-28T09:06:22.222Z,29.12
2017-08-28T09:08:47.975Z,28.67
2017-08-28T09:11:13.718Z,27.73
2017-08-28T09:13:39.495Z,28.28
2017-08-28T09:16:05.231Z,29.26
2017-08-28T09:18:31.382Z,29.46
2017-08-28T09:20:57.124Z,29.17
2017-08-28T09:23:22.899Z,29.04
2017-08-28T09:25:48.665Z,29.52
2017-08-28T09:28:14.412Z,29.58
2017-08-28T09:30:40.196Z,29.55
2017-08-28T09:33:05.980Z,29.78
2017-08-28T09:35:31.736Z,30.00
2017-08-28T09:37:57.519Z,28.85
2017-08-28T09:40:23.296Z,29.65
2017-08-28T09:42:49.067Z,29.15
2017-08-28T09:45:14.859Z,29.75
2017-08-28T09:47:40.631Z,30.78
2017-08-28T09:50:06.370Z,30.66
2017-08-28T09:52:32.153Z,31.05
2017-08-28T09:54:57.966Z,30.18
2017-08-28T09:57:23.747Z,30.36
2017-08-28T09:59:49.531Z,29.98
2017-08-28T10:02:15.359Z,31.03
2017-08-28T10:04:41.138Z,30.43
2017-08-28T10:07:06.876Z,30.72
2017-08-28T10:09:32.663Z,29.95
2017-08-28T10:11:58.437Z,31.08
2017-08-28T10:14:24.203Z,31.06
2017-08-28T10:16:50.038Z,31.47
2017-08-28T10:19:15.806Z,31.83
2017-08-28T10:21:41.602Z,31.72
2017-08-28T10:24:07.338Z,32.49
2017-08-28T10:26:33.164Z,31.75
2017-08-28T10:28:58.991Z,32.49
2017-08-28T10:31:24.739Z,32.01
2017-08-28T10:33:50.511Z,32.08
2017-08-28T10:36:16.281Z,30.85
2017-08-28T10:38:42.031Z,32.47
2017-08-28T10:41:07.831Z,32.28
2017-08-28T10:43:33.592Z,32.29
2017-08-28T10:45:59.375Z,31.58
2017-08-28T10:48:25.141Z,31.57
2017-08-28T10:50:50.895Z,31.55
2017-08-28T10:53:16.653Z,32.54
2017-08-28T10:55:42.398Z,33.04
2017-08-28T10:58:08.213Z,31.86
2017-08-28T11:00:34.022Z,32.89
2017-08-28T11:02:59.779Z,33.13
2017-08-28T11:05:25.539Z,30.72
2017-08-28T11:07:51.302Z,32.43
2017-08-28T11:10:17.058Z,33.25
2017-08-28T11:12:42.838Z,32.18
2017-08-28T11:15:08.595Z,33.08
2017-08-28T11:17:34.344Z,33.28
2017-08-28T11:20:00.172Z,32.87
2017-08-28T11:22:25.931Z,32.88
2017-08-28T11:24:51.686Z,34.07
2017-08-28T11:27:17.455Z,34.01
2017-08-28T11:29:43.218Z,34.73
2017-08-28T11:32:08.959Z,33.01
2017-08-28T11:34:34.739Z,33.66
2017-08-28T11:37:00.484Z,34.77
2017-08-28T11:39:26.308Z,34.70
2017-08-28T11:41:52.060Z,34.63
2017-08-28T11:44:17.899Z,34.55
2017-08-28T11:46:43.655Z,33.57
2017-08-28T11:49:09.484Z,34.46
2017-08-28T11:51:35.231Z,35.49
2017-08-28T11:54:00.990Z,36.04
2017-08-28T11:56:26.763Z,35.66
2017-08-28T11:58:52.498Z,34.89
2017-08-28T12:01:18.291Z,33.49
2017-08-28T12:03:44.076Z,34.24
2017-08-28T12:06:09.835Z,35.28
2017-08-28T12:08:35.575Z,35.57
2017-08-28T12:11:01.377Z,34.62
2017-08-28T12:13:27.124Z,31.66
2017-08-28T12:15:52.944Z,35.29
2017-08-28T12:18:18.720Z,35.90
2017-08-28T12:20:44.497Z,36.49
2017-08-28T12:23:10.245Z,35.62
2017-08-28T12:25:36.047Z,35.16
2017-08-28T12:28:01.795Z,34.92
2017-08-28T12:30:27.559Z,35.80
2017-08-28T12:32:53.317Z,36.03
2017-08-28T12:35:19.086Z,35.99
2017-08-28T12:37:44.843Z,34.66
2017-08-28T12:40:10.632Z,35.13
2017-08-28T12:42:36.447Z,35.38
2017-08-28T12:45:02.278Z,35.64
2017-08-28T12:47:28.053Z,36.50
2017-08-28T12:49:53.798Z,36.28
2017-08-28T12:52:19.675Z,35.73
2017-08-28T12:54:46.361Z,35.27
2017-08-28T12:57:12.216Z,35.23
2017-08-28T12:59:38.070Z,35.47
2017-08-28T13:02:03.829Z,35.20
2017-08-28T13:04:29.684Z,35.59
2017-08-28T13:06:55.688Z,35.15
2017-08-28T13:09:21.440Z,36.07
2017-08-28T13:11:47.203Z,34.37
2017-08-28T13:14:13.028Z,32.64
2017-08-28T13:16:38.803Z,35.20
2017-08-28T13:19:04.589Z,36.22
2017-08-28T13:21:30.334Z,36.04
2017-08-28T13:23:56.210Z,35.99
2017-08-28T13:26:21.969Z,36.06
2017-08-28T13:28:47.725Z,35.01
2017-08-28T13:31:13.528Z,35.37
2017-08-28T13:33:39.268Z,35.99
2017-08-28T13:36:05.047Z,34.60
2017-08-28T13:38:30.821Z,34.61
2017-08-28T13:40:56.579Z,31.62
2017-08-28T13:43:22.355Z,34.20
2017-08-28T13:45:48.147Z,35.79
2017-08-28T13:48:13.931Z,35.72
2017-08-28T13:50:39.683Z,35.34
2017-08-28T13:53:05.454Z,34.91
2017-08-28T13:55:31.238Z,35.45
2017-08-28T13:57:57.019Z,35.43
2017-08-28T14:00:22.792Z,36.15
2017-08-28T14:02:48.552Z,35.47
2017-08-28T14:05:14.322Z,35.25
2017-08-28T14:07:46.272Z,34.59
2017-08-28T14:10:12.103Z,35.09
2017-08-28T14:12:37.866Z,35.10
2017-08-28T14:15:03.648Z,34.91
2017-08-28T14:17:29.409Z,35.88
2017-08-28T14:19:55.153Z,36.04
2017-08-28T14:22:20.935Z,35.60
2017-08-28T14:24:46.682Z,33.98
2017-08-28T14:27:12.479Z,35.74
2017-08-28T14:29:38.223Z,35.89
2017-08-28T14:32:03.990Z,36.02
2017-08-28T14:34:29.850Z,35.72
2017-08-28T14:36:55.596Z,35.01
2017-08-28T14:39:21.370Z,35.51
2017-08-28T14:41:47.139Z,35.47
2017-08-28T14:44:12.923Z,34.90
2017-08-28T14:46:38.675Z,35.76
2017-08-28T14:49:04.443Z,35.33
2017-08-28T14:51:30.235Z,34.64
2017-08-28T14:53:55.985Z,34.64
2017-08-28T14:56:21.727Z,35.00
2017-08-28T14:58:47.602Z,35.34
2017-08-28T15:01:13.371Z,35.86
2017-08-28T15:03:39.168Z,36.04
2017-08-28T15:06:04.952Z,36.07
2017-08-28T15:08:30.834Z,36.51
2017-08-28T15:10:56.588Z,36.08
2017-08-28T15:13:22.345Z,36.38
2017-08-28T15:15:48.188Z,36.61
2017-08-28T15:18:13.963Z,36.32
2017-08-28T15:20:39.799Z,35.87
2017-08-28T15:23:05.575Z,35.80
2017-08-28T15:25:31.347Z,36.14
2017-08-28T15:27:57.143Z,36.53
2017-08-28T15:30:22.993Z,37.06
2017-08-28T15:32:48.763Z,36.39
2017-08-28T15:35:14.563Z,34.93
2017-08-28T15:37:40.393Z,34.55
2017-08-28T15:40:06.198Z,35.38
2017-08-28T15:42:32.068Z,34.69
2017-08-28T15:44:57.816Z,34.91
2017-08-28T15:47:23.572Z,34.86
2017-08-28T15:49:49.422Z,34.86
2017-08-28T15:52:15.215Z,34.54
2017-08-28T15:54:41.038Z,34.43
2017-08-28T15:57:06.915Z,33.97
2017-08-28T15:59:32.659Z,33.67
2017-08-28T16:01:58.415Z,33.78
2017-08-28T16:04:24.199Z,33.64
2017-08-28T16:06:49.957Z,33.55
2017-08-28T16:09:15.706Z,33.12
2017-08-28T16:11:41.489Z,32.98
2017-08-28T16:14:07.329Z,33.00
2017-08-28T16:16:33.084Z,32.49
2017-08-28T16:18:58.868Z,32.57
2017-08-28T16:21:24.627Z,32.84
2017-08-28T16:23:50.454Z,32.52
2017-08-28T16:26:16.218Z,32.64
2017-08-28T16:28:41.982Z,31.97
2017-08-28T16:31:07.765Z,32.13
2017-08-28T16:33:33.527Z,31.42
2017-08-28T16:35:59.314Z,31.09
2017-08-28T16:38:25.099Z,31.10
2017-08-28T16:40:50.847Z,30.53
2017-08-28T16:43:16.644Z,30.32
2017-08-28T16:45:42.396Z,30.02
2017-08-28T16:48:08.131Z,29.46
2017-08-28T16:50:33.899Z,29.17
2017-08-28T16:52:59.665Z,29.11
2017-08-28T16:55:25.463Z,28.93
2017-08-28T16:57:51.260Z,28.77
2017-08-28T17:00:17.015Z,28.71
2017-08-28T17:02:42.882Z,28.55
2017-08-28T17:05:08.696Z,28.50
2017-08-28T17:07:34.465Z,28.33
2017-08-28T17:10:00.298Z,28.10
2017-08-28T17:12:26.082Z,28.17
2017-08-28T17:14:52.035Z,28.05
2017-08-28T17:17:18.804Z,27.84
2017-08-28T17:19:46.673Z,27.87
2017-08-28T17:22:13.394Z,27.74
2017-08-28T17:24:40.194Z,27.66
2017-08-28T17:27:06.893Z,27.35
2017-08-28T17:29:33.746Z,27.22
2017-08-28T17:32:00.561Z,27.24
2017-08-28T17:34:27.346Z,27.00
2017-08-28T17:36:53.943Z,27.04
2017-08-28T17:39:20.767Z,26.91
2017-08-28T17:41:46.924Z,26.72
2017-08-28T17:44:12.740Z,26.47
2017-08-28T17:46:38.524Z,26.39
2017-08-28T17:49:04.350Z,26.38
2017-08-28T17:51:30.094Z,26.29
2017-08-28T17:53:55.848Z,26.05
2017-08-28T17:56:21.666Z,25.89
2017-08-28T17:58:47.411Z,25.74
2017-08-28T18:01:13.169Z,25.67
2017-08-28T18:03:39.253Z,25.53
2017-08-28T18:06:05.024Z,25.34
2017-08-28T18:08:30.787Z,25.16
2017-08-28T18:10:56.747Z,24.93
2017-08-28T18:13:23.485Z,24.85
2017-08-28T18:15:50.267Z,24.80
2017-08-28T18:18:16.767Z,24.70
2017-08-28T18:20:43.421Z,24.55
2017-08-28T18:23:10.007Z,24.39
2017-08-28T18:25:36.638Z,24.27
2017-08-28T18:28:03.181Z,24.15
2017-08-28T18:30:29.788Z,24.12
2017-08-28T18:32:56.280Z,23.85
2017-08-28T18:35:22.836Z,23.71
2017-08-28T18:37:49.687Z,23.61
2017-08-28T18:40:16.336Z,23.43
2017-08-28T18:42:42.752Z,23.42
2017-08-28T18:45:08.600Z,23.23
2017-08-28T18:47:34.383Z,23.17
2017-08-28T18:50:00.219Z,23.09
2017-08-28T18:52:25.970Z,23.07
2017-08-28T18:54:52.409Z,23.16
2017-08-28T18:57:18.215Z,23.11
2017-08-28T18:59:44.038Z,22.94
2017-08-28T19:02:09.784Z,22.91
2017-08-28T19:04:35.604Z,22.96
2017-08-28T19:07:01.362Z,22.83
2017-08-28T19:09:27.135Z,22.70
2017-08-28T19:11:52.935Z,22.61
2017-08-28T19:14:18.727Z,22.44
2017-08-28T19:16:44.499Z,22.34
2017-08-28T19:19:10.275Z,22.34
2017-08-28T19:21:36.106Z,22.20
2017-08-28T19:24:02.689Z,22.11
2017-08-28T19:26:28.515Z,22.28
2017-08-28T19:28:54.297Z,22.15
2017-08-28T19:31:20.079Z,22.18
2017-08-28T19:33:47.799Z,22.22
2017-08-28T19:36:13.584Z,22.19
2017-08-28T19:38:40.357Z,22.15
2017-08-28T19:41:06.122Z,22.18
2017-08-28T19:43:31.884Z,22.27
2017-08-28T19:45:57.671Z,22.07
2017-08-28T19:48:23.427Z,22.32
2017-08-28T19:50:49.175Z,21.85
2017-08-28T19:53:14.959Z,21.64
2017-08-28T19:55:40.747Z,21.50
2017-08-28T19:58:06.623Z,21.51
2017-08-28T20:00:32.367Z,21.59
2017-08-28T20:02:58.140Z,21.47
2017-08-28T20:05:23.928Z,21.25
2017-08-28T20:07:49.690Z,21.29
2017-08-28T20:10:15.462Z,21.32
2017-08-28T20:12:41.211Z,21.29
2017-08-28T20:15:07.032Z,21.24
2017-08-28T20:17:32.873Z,21.24
2017-08-28T20:19:58.637Z,21.20
2017-08-28T20:22:24.442Z,21.30
2017-08-28T20:24:50.190Z,21.16
2017-08-28T20:27:15.975Z,21.09
2017-08-28T20:29:41.768Z,21.18
2017-08-28T20:32:07.516Z,20.92
2017-08-28T20:34:33.263Z,21.08
2017-08-28T20:36:59.044Z,20.93
2017-08-28T20:39:24.791Z,20.85
2017-08-28T20:41:50.630Z,20.65
2017-08-28T20:44:16.418Z,20.55
2017-08-28T20:46:42.168Z,20.73
2017-08-28T20:49:08.007Z,20.64
2017-08-28T20:51:33.803Z,20.61
2017-08-28T20:53:59.559Z,20.64
2017-08-28T20:56:25.325Z,20.58
2017-08-28T20:58:51.102Z,20.36
2017-08-28T21:01:16.855Z,20.33
2017-08-28T21:03:42.618Z,20.34
2017-08-28T21:06:08.376Z,20.42
2017-08-28T21:08:34.136Z,20.34
2017-08-28T21:10:59.923Z,20.26
2017-08-28T21:13:25.666Z,20.12
2017-08-28T21:15:51.475Z,20.14
2017-08-28T21:18:17.273Z,20.17
2017-08-28T21:20:43.019Z,20.09
2017-08-28T21:23:08.783Z,20.02
2017-08-28T21:25:34.651Z,20.14
2017-08-28T21:28:00.444Z,20.25
2017-08-28T21:30:26.218Z,19.91
2017-08-28T21:32:52.019Z,19.88
2017-08-28T21:35:17.806Z,19.81
2017-08-28T21:37:43.538Z,19.79
2017-08-28T21:40:09.294Z,19.73
2017-08-28T21:42:35.051Z,19.67
2017-08-28T21:45:00.852Z,19.56
2017-08-28T21:47:26.636Z,19.52
2017-08-28T21:49:52.387Z,19.48
2017-08-28T21:52:18.140Z,19.51
2017-08-28T21:54:43.954Z,19.45
2017-08-28T21:57:09.723Z,19.54
2017-08-28T21:59:35.484Z,19.40
2017-08-28T22:02:01.271Z,19.46
2017-08-28T22:04:27.020Z,19.44
2017-08-28T22:06:52.799Z,19.40
2017-08-28T22:09:18.575Z,19.42
2017-08-28T22:11:44.323Z,19.48
2017-08-28T22:14:10.128Z,19.40
2017-08-28T22:16:35.903Z,19.39
2017-08-28T22:19:01.700Z,19.34
2017-08-28T22:21:27.451Z,19.35
2017-08-28T22:23:53.192Z,19.30
2017-08-28T22:26:19.053Z,19.37
2017-08-28T22:28:44.803Z,19.19
2017-08-28T22:31:10.584Z,19.08
2017-08-28T22:33:36.346Z,19.20
2017-08-28T22:36:02.106Z,18.81
2017-08-28T22:38:27.978Z,19.03
2017-08-28T22:40:53.760Z,19.05
2017-08-28T22:43:19.535Z,18.94
2017-08-28T22:45:45.279Z,18.93
2017-08-28T22:48:11.053Z,18.93
2017-08-28T22:50:36.811Z,18.92
2017-08-28T22:53:02.601Z,18.73
2017-08-28T22:55:28.359Z,18.81
2017-08-28T22:57:54.107Z,18.79
2017-08-28T23:00:19.887Z,18.83
2017-08-28T23:02:45.664Z,18.69
2017-08-28T23:05:11.408Z,18.68
2017-08-28T23:07:37.183Z,18.72
2017-08-28T23:10:02.952Z,18.75
2017-08-28T23:12:28.698Z,18.85
2017-08-28T23:14:54.491Z,18.83
2017-08-28T23:17:20.234Z,18.86
2017-08-28T23:19:46.035Z,18.74
2017-08-28T23:22:11.781Z,18.65
2017-08-28T23:24:37.618Z,18.57
2017-08-28T23:27:03.402Z,18.62
2017-08-28T23:29:29.147Z,18.52
2017-08-28T23:31:54.900Z,18.56
2017-08-28T23:34:20.755Z,18.55
2017-08-28T23:36:46.500Z,18.59
2017-08-28T23:39:12.241Z,18.69
2017-08-28T23:41:38.014Z,18.50
2017-08-28T23:44:03.783Z,18.57
2017-08-28T23:46:29.561Z,18.47
2017-08-28T23:48:55.319Z,18.45
2017-08-28T23:51:21.068Z,18.14
2017-08-28T23:53:46.833Z,18.38
2017-08-28T23:56:12.583Z,18.42
2017-08-28T23:58:38.325Z,18.44
